createdAt,value
2017-08-19T00:00:56.691Z,18.00
2017-08-19T00:03:24.191Z,18.00
2017-08-19T00:05:51.670Z,18.00
2017-08-19T00:08:20.124Z,18.00
2017-08-19T00:10:48.391Z,18.00
2017-08-19T00:13:15.897Z,18.00
2017-08-19T00:15:43.398Z,18.00
2017-08-19T00:18:11.021Z,18.00
2017-08-19T00:20:38.481Z,18.00
2017-08-19T00:23:06.211Z,17.90
2017-08-19T00:25:33.736Z,17.90
2017-08-19T00:28:01.478Z,17.90
2017-08-19T00:30:28.951Z,17.90
2017-08-19T00:32:56.452Z,17.90
2017-08-19T00:35:24.078Z,17.90
2017-08-19T00:37:51.566Z,17.80
2017-08-19T00:40:19.064Z,17.80
2017-08-19T00:42:48.131Z,17.80
2017-08-19T00:45:15.622Z,17.90
2017-08-19T00:47:43.110Z,17.90
2017-08-19T00:50:10.587Z,17.90
2017-08-19T00:52:38.056Z,17.90
2017-08-19T00:55:05.577Z,17.90
2017-08-19T00:57:33.049Z,17.90
2017-08-19T01:00:00.507Z,17.80
2017-08-19T01:02:27.982Z,17.80
2017-08-19T01:04:55.681Z,17.80
2017-08-19T01:07:23.119Z,17.70
2017-08-19T01:09:50.993Z,17.70
2017-08-19T01:12:18.498Z,17.60
2017-08-19T01:14:46.001Z,17.60
2017-08-19T01:17:13.538Z,17.60
2017-08-19T01:19:41.021Z,17.50
2017-08-19T01:22:08.635Z,17.50
2017-08-19T01:24:36.832Z,17.50
2017-08-19T01:27:04.473Z,17.40
2017-08-19T01:29:31.939Z,17.40
2017-08-19T01:32:01.151Z,17.30
2017-08-19T01:34:28.680Z,17.30
2017-08-19T01:36:56.152Z,17.30
2017-08-19T01:39:23.658Z,17.30
2017-08-19T01:41:51.147Z,17.30
2017-08-19T01:44:18.631Z,17.30
2017-08-19T01:46:46.289Z,17.30
2017-08-19T01:49:13.763Z,17.30
2017-08-19T01:51:41.239Z,17.30
2017-08-19T01:54:08.929Z,17.20
2017-08-19T01:56:36.736Z,17.20
2017-08-19T01:59:04.282Z,17.10
2017-08-19T02:01:32.291Z,17.10
2017-08-19T02:03:59.783Z,17.10
2017-08-19T02:06:27.402Z,17.00
2017-08-19T02:08:55.624Z,17.00
2017-08-19T02:11:23.105Z,17.00
2017-08-19T02:13:50.588Z,17.00
2017-08-19T02:16:18.238Z,17.00
2017-08-19T02:18:45.695Z,17.00
2017-08-19T02:21:13.183Z,17.00
2017-08-19T02:23:40.705Z,17.00
2017-08-19T02:26:08.202Z,17.00
2017-08-19T02:28:35.678Z,17.00
2017-08-19T02:31:03.189Z,17.00
2017-08-19T02:33:30.650Z,17.10
2017-08-19T02:35:58.336Z,17.10
2017-08-19T02:38:25.880Z,17.10
2017-08-19T02:40:53.427Z,17.00
2017-08-19T02:43:20.858Z,17.00
2017-08-19T02:45:48.418Z,17.00
2017-08-19T02:48:15.944Z,17.00
2017-08-19T02:50:43.580Z,17.00
2017-08-19T02:53:12.605Z,17.00
2017-08-19T02:55:40.284Z,17.00
2017-08-19T02:58:07.851Z,17.00
2017-08-19T03:00:35.347Z,16.90
2017-08-19T03:03:02.848Z,17.00
2017-08-19T03:05:30.324Z,16.90
2017-08-19T03:07:57.849Z,16.90
2017-08-19T03:10:25.360Z,16.90
2017-08-19T03:12:52.845Z,16.90
2017-08-19T03:15:20.494Z,16.80
2017-08-19T03:17:47.931Z,16.90
2017-08-19T03:20:15.429Z,16.90
2017-08-19T03:22:43.099Z,16.80
2017-08-19T03:25:11.325Z,16.80
2017-08-19T03:27:38.785Z,16.90
2017-08-19T03:30:06.290Z,16.80
2017-08-19T03:32:33.875Z,16.80
2017-08-19T03:35:01.341Z,16.80
2017-08-19T03:37:28.956Z,16.80
2017-08-19T03:39:56.423Z,16.70
2017-08-19T03:42:24.024Z,16.70
2017-08-19T03:44:51.818Z,16.60
2017-08-19T03:47:19.280Z,16.60
2017-08-19T03:49:46.750Z,16.60
2017-08-19T03:52:14.859Z,16.60
2017-08-19T03:54:42.323Z,16.50
2017-08-19T03:57:09.773Z,16.50
2017-08-19T03:59:37.276Z,16.50
2017-08-19T04:02:04.763Z,16.50
2017-08-19T04:04:32.237Z,16.50
2017-08-19T04:06:59.941Z,16.40
2017-08-19T04:09:27.432Z,16.40
2017-08-19T04:11:54.907Z,16.30
2017-08-19T04:14:22.363Z,16.30
2017-08-19T04:16:49.844Z,16.30
2017-08-19T04:19:17.362Z,16.30
2017-08-19T04:21:44.882Z,16.30
2017-08-19T04:24:12.356Z,16.30
2017-08-19T04:26:39.855Z,16.30
2017-08-19T04:29:07.370Z,16.30
2017-08-19T04:31:34.775Z,16.20
2017-08-19T04:34:02.333Z,16.20
2017-08-19T04:36:29.944Z,16.20
2017-08-19T04:38:57.398Z,16.20
2017-08-19T04:41:24.894Z,16.10
2017-08-19T04:43:52.649Z,16.10
2017-08-19T04:46:20.112Z,16.10
2017-08-19T04:48:47.593Z,16.00
2017-08-19T04:51:15.780Z,16.00
2017-08-19T04:53:43.253Z,16.00
2017-08-19T04:56:11.077Z,15.90
2017-08-19T04:58:38.564Z,15.90
2017-08-19T05:01:05.998Z,15.80
2017-08-19T05:03:33.853Z,15.80
2017-08-19T05:06:01.516Z,15.80
2017-08-19T05:08:28.927Z,15.80
2017-08-19T05:10:56.400Z,15.80
2017-08-19T05:13:23.910Z,15.80
2017-08-19T05:15:51.376Z,15.80
2017-08-19T05:18:18.847Z,15.80
2017-08-19T05:20:46.596Z,15.70
2017-08-19T05:23:14.071Z,15.80
2017-08-19T05:25:41.552Z,15.80
2017-08-19T05:28:09.267Z,15.80
2017-08-19T05:30:36.877Z,15.80
2017-08-19T05:33:04.341Z,15.80
2017-08-19T05:35:31.839Z,15.80
2017-08-19T05:37:59.295Z,15.90
2017-08-19T05:40:26.990Z,15.80
2017-08-19T05:42:54.485Z,15.90
2017-08-19T05:45:21.941Z,15.90
2017-08-19T05:47:49.615Z,15.90
2017-08-19T05:50:17.085Z,15.90
2017-08-19T05:52:44.634Z,15.90
2017-08-19T05:55:12.193Z,16.00
2017-08-19T05:57:39.682Z,16.00
2017-08-19T06:00:07.345Z,16.00
2017-08-19T06:02:34.834Z,16.00
2017-08-19T06:05:02.312Z,16.00
2017-08-19T06:07:29.952Z,16.10
2017-08-19T06:09:57.387Z,16.10
2017-08-19T06:12:24.894Z,16.20
2017-08-19T06:14:52.362Z,16.20
2017-08-19T06:17:19.851Z,16.30
2017-08-19T06:19:47.309Z,16.30
2017-08-19T06:22:14.814Z,16.30
2017-08-19T06:24:42.254Z,16.30
2017-08-19T06:27:09.733Z,16.30
2017-08-19T06:29:37.248Z,16.30
2017-08-19T06:32:04.705Z,16.40
2017-08-19T06:34:32.175Z,16.50
2017-08-19T06:36:59.715Z,16.40
2017-08-19T06:39:27.208Z,16.50
2017-08-19T06:41:54.887Z,16.60
2017-08-19T06:44:22.452Z,16.60
2017-08-19T06:46:49.890Z,16.70
2017-08-19T06:49:17.451Z,16.80
2017-08-19T06:51:44.976Z,16.80
2017-08-19T06:54:12.434Z,16.80
2017-08-19T06:56:40.075Z,16.80
2017-08-19T06:59:07.656Z,16.90
2017-08-19T07:01:35.118Z,16.90
2017-08-19T07:04:02.852Z,17.00
2017-08-19T07:06:30.311Z,17.00
2017-08-19T07:08:57.789Z,17.00
2017-08-19T07:11:25.262Z,17.00
2017-08-19T07:13:52.771Z,16.90
2017-08-19T07:16:20.516Z,17.00
2017-08-19T07:18:48.000Z,16.90
2017-08-19T07:21:15.711Z,17.00
2017-08-19T07:23:43.173Z,17.00
2017-08-19T07:26:10.644Z,17.00
2017-08-19T07:28:38.254Z,17.10
2017-08-19T07:31:05.719Z,17.10
2017-08-19T07:33:33.214Z,17.10
2017-08-19T07:36:00.682Z,17.10
2017-08-19T07:38:28.194Z,17.10
2017-08-19T07:40:56.039Z,17.00
2017-08-19T07:43:23.534Z,17.10
2017-08-19T07:45:51.012Z,17.00
2017-08-19T07:48:18.514Z,17.00
2017-08-19T07:50:45.989Z,17.00
2017-08-19T07:53:13.702Z,17.10
2017-08-19T07:55:41.385Z,17.20
2017-08-19T07:58:08.853Z,17.30
2017-08-19T08:00:36.315Z,17.20
2017-08-19T08:03:03.938Z,17.20
2017-08-19T08:05:31.396Z,17.20
2017-08-19T08:07:58.865Z,17.20
2017-08-19T08:10:26.445Z,17.30
2017-08-19T08:12:53.900Z,17.30
2017-08-19T08:15:21.408Z,17.30
2017-08-19T08:17:49.321Z,17.40
2017-08-19T08:20:16.744Z,17.40
2017-08-19T08:22:44.208Z,17.50
2017-08-19T08:25:11.690Z,17.50
2017-08-19T08:27:39.168Z,17.60
2017-08-19T08:30:06.636Z,17.60
2017-08-19T08:32:34.124Z,17.70
2017-08-19T08:35:01.800Z,17.70
2017-08-19T08:37:29.256Z,17.80
2017-08-19T08:39:56.682Z,17.80
2017-08-19T08:42:24.393Z,17.80
2017-08-19T08:44:51.845Z,17.90
2017-08-19T08:47:19.259Z,18.00
2017-08-19T08:49:46.791Z,18.10
2017-08-19T08:52:14.245Z,18.10
2017-08-19T08:54:41.727Z,18.20
2017-08-19T08:57:09.273Z,18.20
2017-08-19T08:59:36.727Z,18.30
2017-08-19T09:02:04.219Z,18.30
2017-08-19T09:04:31.743Z,18.30
2017-08-19T09:06:59.316Z,18.40
2017-08-19T09:09:26.787Z,18.40
2017-08-19T09:11:54.255Z,18.40
2017-08-19T09:14:22.099Z,18.50
2017-08-19T09:16:49.809Z,18.60
2017-08-19T09:19:17.288Z,18.60
2017-08-19T09:21:44.802Z,18.70
2017-08-19T09:24:12.554Z,18.80
2017-08-19T09:26:40.208Z,19.00
2017-08-19T09:29:07.705Z,19.00
2017-08-19T09:31:35.255Z,19.20
2017-08-19T09:34:02.772Z,19.40
2017-08-19T09:36:30.254Z,19.60
2017-08-19T09:38:57.872Z,19.90
2017-08-19T09:41:25.330Z,20.40
2017-08-19T09:43:52.809Z,20.90
2017-08-19T09:46:20.359Z,21.20
2017-08-19T09:48:47.915Z,21.20
2017-08-19T09:51:15.395Z,21.30
2017-08-19T09:53:42.905Z,21.70
2017-08-19T09:56:10.412Z,22.00
2017-08-19T09:58:38.080Z,22.50
2017-08-19T10:01:05.594Z,22.70
2017-08-19T10:03:33.032Z,22.70
2017-08-19T10:06:00.705Z,22.70
2017-08-19T10:08:40.175Z,22.80
2017-08-19T10:11:19.691Z,22.80
2017-08-19T10:13:47.125Z,22.60
2017-08-19T10:16:14.555Z,22.40
2017-08-19T10:18:42.176Z,22.10
2017-08-19T10:21:09.620Z,21.90
2017-08-19T10:23:37.073Z,21.70
2017-08-19T10:26:04.790Z,21.50
2017-08-19T10:28:32.257Z,21.30
2017-08-19T10:30:59.688Z,21.30
2017-08-19T10:33:27.168Z,21.20
2017-08-19T10:35:54.609Z,21.10
2017-08-19T10:38:22.038Z,20.90
2017-08-19T10:40:49.522Z,20.80
2017-08-19T10:43:16.959Z,20.70
2017-08-19T10:45:44.700Z,20.60
2017-08-19T10:48:12.150Z,20.60
2017-08-19T10:50:39.601Z,20.60
2017-08-19T10:53:07.074Z,20.50
2017-08-19T10:55:34.504Z,20.40
2017-08-19T10:58:01.965Z,20.50
2017-08-19T11:00:29.424Z,20.40
2017-08-19T11:02:56.875Z,20.50
2017-08-19T11:05:24.369Z,20.40
2017-08-19T11:07:51.855Z,20.30
2017-08-19T11:10:19.274Z,20.30
2017-08-19T11:12:46.716Z,20.30
2017-08-19T11:15:14.373Z,20.40
2017-08-19T11:17:42.669Z,20.50
2017-08-19T11:20:10.122Z,20.50
2017-08-19T11:22:37.632Z,20.60
2017-08-19T11:25:05.078Z,20.60
2017-08-19T11:27:32.511Z,20.60
2017-08-19T11:30:00.070Z,20.70
2017-08-19T11:32:27.513Z,20.70
2017-08-19T11:34:54.948Z,20.70
2017-08-19T11:37:23.216Z,20.70
2017-08-19T11:39:50.654Z,20.80
2017-08-19T11:42:18.132Z,20.70
2017-08-19T11:44:45.578Z,20.60
2017-08-19T11:47:13.031Z,20.60
2017-08-19T11:49:40.665Z,20.60
2017-08-19T11:52:08.100Z,20.50
2017-08-19T11:54:35.557Z,20.30
2017-08-19T11:57:03.048Z,20.30
2017-08-19T11:59:30.670Z,20.30
2017-08-19T12:01:58.115Z,20.40
2017-08-19T12:04:25.771Z,20.50
2017-08-19T12:06:53.206Z,20.50
2017-08-19T12:09:20.640Z,20.50
2017-08-19T12:11:48.097Z,20.60
2017-08-19T12:14:15.535Z,20.60
2017-08-19T12:16:43.006Z,20.60
2017-08-19T12:19:10.447Z,20.60
2017-08-19T12:21:38.072Z,20.70
2017-08-19T12:24:05.499Z,20.70
2017-08-19T12:26:32.936Z,20.80
2017-08-19T12:29:00.379Z,21.00
2017-08-19T12:31:28.079Z,21.10
2017-08-19T12:33:55.583Z,21.10
2017-08-19T12:36:23.014Z,21.10
2017-08-19T12:38:50.460Z,21.20
2017-08-19T12:41:17.901Z,21.30
2017-08-19T12:43:45.678Z,21.30
2017-08-19T12:46:13.925Z,21.20
2017-08-19T12:48:41.371Z,21.20
2017-08-19T12:51:09.041Z,21.00
2017-08-19T12:53:36.489Z,21.00
2017-08-19T12:56:03.911Z,21.00
2017-08-19T12:58:31.382Z,21.00
2017-08-19T13:00:58.819Z,21.00
2017-08-19T13:03:26.254Z,21.00
2017-08-19T13:05:53.946Z,21.10
2017-08-19T13:08:21.407Z,21.10
2017-08-19T13:10:48.833Z,21.10
2017-08-19T13:13:16.510Z,21.10
2017-08-19T13:15:43.953Z,21.10
2017-08-19T13:18:11.387Z,21.10
2017-08-19T13:20:38.875Z,21.10
2017-08-19T13:23:06.310Z,21.00
2017-08-19T13:25:33.770Z,21.00
2017-08-19T13:28:01.367Z,21.00
2017-08-19T13:30:29.119Z,21.00
2017-08-19T13:32:56.631Z,21.00
2017-08-19T13:35:25.091Z,21.10
2017-08-19T13:37:52.552Z,21.10
2017-08-19T13:40:20.087Z,21.20
2017-08-19T13:42:47.910Z,21.30
2017-08-19T13:45:15.347Z,21.30
2017-08-19T13:47:42.825Z,21.30
2017-08-19T13:50:10.252Z,21.40
2017-08-19T13:52:37.792Z,21.40
2017-08-19T13:55:05.375Z,21.40
2017-08-19T13:57:32.968Z,21.40
2017-08-19T14:00:00.446Z,21.60
2017-08-19T14:02:27.913Z,21.60
2017-08-19T14:04:55.752Z,21.70
2017-08-19T14:07:23.803Z,21.60
2017-08-19T14:09:51.376Z,21.60
2017-08-19T14:12:18.960Z,21.60
2017-08-19T14:27:48.451Z,22.40
2017-08-19T14:30:15.936Z,22.30
2017-08-19T14:32:43.513Z,22.20
2017-08-19T14:35:11.321Z,22.20
2017-08-19T14:37:38.786Z,22.20
2017-08-19T14:40:06.288Z,22.20
2017-08-19T14:42:33.917Z,22.30
2017-08-19T14:45:01.373Z,22.30
2017-08-19T14:47:28.816Z,22.40
2017-08-19T14:49:56.935Z,22.50
2017-08-19T14:52:24.755Z,22.40
2017-08-19T14:54:52.215Z,22.40
2017-08-19T14:57:19.665Z,22.40
2017-08-19T14:59:47.851Z,22.50
2017-08-19T15:02:15.480Z,22.60
2017-08-19T15:04:42.934Z,22.70
2017-08-19T15:07:10.550Z,22.70
2017-08-19T15:09:37.992Z,22.80
2017-08-19T15:12:05.444Z,22.80
2017-08-19T15:14:33.143Z,22.80
2017-08-19T15:17:00.605Z,22.80
2017-08-19T15:19:28.727Z,22.80
2017-08-19T15:21:56.209Z,22.70
2017-08-19T15:24:23.685Z,22.70
2017-08-19T15:26:51.144Z,22.60
2017-08-19T15:29:18.631Z,22.50
2017-08-19T15:31:46.100Z,22.50
2017-08-19T15:34:13.555Z,22.50
2017-08-19T15:36:41.028Z,22.50
2017-08-19T15:39:08.468Z,22.40
2017-08-19T15:41:36.396Z,22.40
2017-08-19T15:44:03.865Z,22.30
2017-08-19T15:46:31.290Z,22.30
2017-08-19T15:48:58.933Z,22.20
2017-08-19T15:51:26.400Z,22.20
2017-08-19T15:53:53.855Z,22.20
2017-08-19T15:56:21.376Z,22.10
2017-08-19T15:58:48.845Z,22.00
2017-08-19T16:01:16.340Z,22.00
2017-08-19T16:03:43.833Z,21.90
2017-08-19T16:06:11.284Z,21.90
2017-08-19T16:08:38.743Z,21.80
2017-08-19T16:11:06.222Z,21.90
2017-08-19T16:13:34.603Z,21.80
2017-08-19T16:16:02.114Z,21.80
2017-08-19T16:18:29.567Z,21.70
2017-08-19T16:20:57.017Z,21.60
2017-08-19T16:23:24.483Z,21.60
2017-08-19T16:25:51.958Z,21.50
2017-08-19T16:28:19.575Z,21.50
2017-08-19T16:30:47.412Z,21.50
2017-08-19T16:33:15.130Z,21.40
2017-08-19T16:35:42.630Z,21.40
2017-08-19T16:38:10.039Z,21.30
2017-08-19T16:40:37.624Z,21.30
2017-08-19T16:43:05.660Z,21.10
2017-08-19T16:45:33.398Z,21.10
2017-08-19T16:48:01.182Z,21.10
2017-08-19T16:50:29.342Z,21.10
2017-08-19T16:52:57.065Z,21.00
2017-08-19T16:55:24.530Z,21.10
2017-08-19T16:57:52.040Z,21.10
2017-08-19T17:00:19.467Z,21.20
2017-08-19T17:02:46.944Z,21.30
2017-08-19T17:05:14.514Z,21.30
2017-08-19T17:07:41.971Z,21.30
2017-08-19T17:10:10.055Z,21.30
2017-08-19T17:12:37.492Z,21.40
2017-08-19T17:15:04.946Z,21.40
2017-08-19T17:17:32.701Z,21.30
2017-08-19T17:20:00.457Z,21.20
2017-08-19T17:22:28.249Z,21.10
2017-08-19T17:24:55.715Z,21.00
2017-08-19T17:27:23.294Z,20.90
2017-08-19T17:29:50.773Z,20.80
2017-08-19T17:32:18.238Z,20.70
2017-08-19T17:34:46.038Z,20.60
2017-08-19T17:37:13.598Z,20.60
2017-08-19T17:39:41.058Z,20.50
2017-08-19T17:42:08.722Z,20.50
2017-08-19T17:44:36.170Z,20.40
2017-08-19T17:47:03.627Z,20.30
2017-08-19T17:49:31.766Z,20.30
2017-08-19T17:51:59.204Z,20.20
2017-08-19T17:54:26.652Z,20.20
2017-08-19T17:56:54.332Z,20.20
2017-08-19T17:59:21.818Z,20.20
2017-08-19T18:01:49.293Z,20.10
2017-08-19T18:04:16.765Z,20.10
2017-08-19T18:06:44.246Z,20.10
2017-08-19T18:09:11.739Z,20.10
2017-08-19T18:11:39.245Z,20.10
2017-08-19T18:14:06.660Z,20.00
2017-08-19T18:16:34.147Z,20.00
2017-08-19T18:19:01.592Z,19.90
2017-08-19T18:21:29.254Z,19.70
2017-08-19T18:23:56.687Z,19.50
2017-08-19T18:26:24.552Z,19.30
2017-08-19T18:28:52.251Z,19.30
2017-08-19T18:31:19.727Z,19.20
2017-08-19T18:33:47.157Z,19.10
2017-08-19T18:36:14.861Z,19.00
2017-08-19T18:38:42.339Z,18.80
2017-08-19T18:41:09.835Z,18.70
2017-08-19T18:43:37.395Z,18.70
2017-08-19T18:46:04.884Z,18.60
2017-08-19T18:48:32.342Z,18.60
2017-08-19T18:51:00.294Z,18.60
2017-08-19T18:53:27.751Z,18.60
2017-08-19T18:55:55.214Z,18.60
2017-08-19T18:58:22.702Z,18.60
2017-08-19T19:00:50.255Z,18.60
2017-08-19T19:03:17.736Z,18.60
2017-08-19T19:05:45.219Z,18.60
2017-08-19T19:08:12.722Z,18.60
2017-08-19T19:10:40.273Z,18.60
2017-08-19T19:13:07.757Z,18.60
2017-08-19T19:15:36.662Z,18.50
2017-08-19T19:18:04.140Z,18.50
2017-08-19T19:20:31.577Z,18.50
2017-08-19T19:23:00.501Z,18.50
2017-08-19T19:25:27.949Z,18.50
2017-08-19T19:27:55.431Z,18.50
2017-08-19T19:30:22.915Z,18.40
2017-08-19T19:32:50.355Z,18.40
2017-08-19T19:35:17.810Z,18.40
2017-08-19T19:37:45.280Z,18.40
2017-08-19T19:40:12.735Z,18.30
2017-08-19T19:42:40.241Z,18.30
2017-08-19T19:45:08.048Z,18.20
2017-08-19T19:47:36.255Z,18.20
2017-08-19T19:50:03.716Z,18.10
2017-08-19T19:52:31.495Z,18.10
2017-08-19T19:54:59.059Z,18.10
2017-08-19T19:57:26.539Z,18.10
2017-08-19T19:59:54.090Z,18.10
2017-08-19T20:02:21.544Z,18.10
2017-08-19T20:04:49.167Z,18.10
2017-08-19T20:07:16.650Z,18.00
2017-08-19T20:09:44.118Z,18.00
2017-08-19T20:12:11.624Z,18.00
2017-08-19T20:14:39.096Z,17.90
2017-08-19T20:17:06.556Z,17.90
2017-08-19T20:19:34.058Z,17.90
2017-08-19T20:22:01.488Z,17.80
2017-08-19T20:24:28.938Z,17.80
2017-08-19T20:26:56.416Z,17.80
2017-08-19T20:29:23.888Z,17.80
2017-08-19T20:31:51.359Z,17.70
2017-08-19T20:34:18.864Z,17.70
2017-08-19T20:36:46.325Z,17.70
2017-08-19T20:39:13.881Z,17.70
2017-08-19T20:41:41.348Z,17.70
2017-08-19T20:44:08.819Z,17.60
2017-08-19T20:46:36.774Z,17.60
2017-08-19T20:49:04.446Z,17.60
2017-08-19T20:54:22.432Z,17.50
2017-08-19T20:59:40.778Z,17.50
2017-08-19T21:02:08.221Z,17.50
2017-08-19T21:04:35.681Z,17.50
2017-08-19T21:07:03.163Z,17.50
2017-08-19T21:09:30.679Z,17.50
2017-08-19T21:11:58.099Z,17.50
2017-08-19T21:14:25.570Z,17.40
2017-08-19T21:16:52.992Z,17.40
2017-08-19T21:19:21.491Z,17.30
2017-08-19T21:21:48.929Z,17.30
2017-08-19T21:24:16.488Z,17.30
2017-08-19T21:26:43.942Z,17.30
2017-08-19T21:29:11.373Z,17.20
2017-08-19T21:31:38.804Z,17.30
2017-08-19T21:34:06.256Z,17.30
2017-08-19T21:36:33.691Z,17.30
2017-08-19T21:39:01.117Z,17.20
2017-08-19T21:41:28.631Z,17.20
2017-08-19T21:43:56.130Z,17.20
2017-08-19T21:46:23.560Z,17.20
2017-08-19T21:48:51.011Z,17.20
2017-08-19T21:51:18.480Z,17.20
2017-08-19T21:53:45.928Z,17.20
2017-08-19T21:56:13.367Z,17.30
2017-08-19T21:58:40.860Z,17.20
2017-08-19T22:01:08.580Z,17.30
2017-08-19T22:03:36.043Z,17.30
2017-08-19T22:06:03.497Z,17.30
2017-08-19T22:08:30.961Z,17.30
2017-08-19T22:10:58.407Z,17.30
2017-08-19T22:13:26.872Z,17.30
2017-08-19T22:15:54.339Z,17.30
2017-08-19T22:18:21.778Z,17.30
2017-08-19T22:20:49.232Z,17.30
2017-08-19T22:23:16.723Z,17.30
2017-08-19T22:25:44.155Z,17.30
2017-08-19T22:28:11.629Z,17.40
2017-08-19T22:30:39.097Z,17.30
2017-08-19T22:33:06.665Z,17.40
2017-08-19T22:35:34.140Z,17.40
2017-08-19T22:38:01.689Z,17.40
2017-08-19T22:40:29.116Z,17.30
2017-08-19T22:42:56.581Z,17.30
2017-08-19T22:45:24.066Z,17.30
2017-08-19T22:47:52.307Z,17.20
2017-08-19T22:50:19.851Z,17.20
2017-08-19T22:52:47.718Z,17.10
2017-08-19T22:55:15.726Z,17.10
2017-08-19T22:57:43.219Z,17.10
2017-08-19T23:00:10.682Z,17.10
2017-08-19T23:02:38.119Z,17.10
2017-08-19T23:05:05.580Z,17.00
2017-08-19T23:07:32.996Z,16.90
2017-08-19T23:10:00.432Z,16.90
2017-08-19T23:12:27.994Z,16.80
2017-08-19T23:14:55.473Z,16.70
2017-08-19T23:17:22.905Z,16.70
2017-08-19T23:19:50.397Z,16.70
2017-08-19T23:22:17.928Z,16.70
2017-08-19T23:24:45.379Z,16.70
2017-08-19T23:27:13.678Z,16.70
2017-08-19T23:29:41.113Z,16.70
2017-08-19T23:32:08.556Z,16.60
2017-08-19T23:34:36.068Z,16.60
2017-08-19T23:37:03.515Z,16.60
2017-08-19T23:39:31.286Z,16.50
2017-08-19T23:41:58.753Z,16.50
2017-08-19T23:44:26.203Z,16.50
2017-08-19T23:46:53.684Z,16.40
2017-08-19T23:49:21.231Z,16.40
2017-08-19T23:51:48.664Z,16.40
2017-08-19T23:54:16.112Z,16.30
2017-08-19T23:56:43.643Z,16.30
2017-08-19T23:59:11.512Z,16.30
